createdAt,value
2023-03-12T00:00:40.809Z,0.29
2023-03-12T00:01:40.807Z,0.28
2023-03-12T00:02:40.807Z,0.28
2023-03-12T00:03:40.821Z,0.31
2023-03-12T00:04:40.778Z,0.32
2023-03-12T00:05:40.798Z,0.32
2023-03-12T00:06:40.718Z,0.33
2023-03-12T00:07:40.724Z,0.36
2023-03-12T00:08:40.691Z,0.41
2023-03-12T00:09:40.705Z,0.42
2023-03-12T00:10:40.675Z,0.46
2023-03-12T00:11:40.675Z,0.49
2023-03-12T00:12:40.663Z,0.53
2023-03-12T00:13:40.643Z,0.53
2023-03-12T00:14:40.624Z,0.58
2023-03-12T00:15:40.685Z,0.61
2023-03-12T00:16:40.614Z,0.65
2023-03-12T00:17:40.605Z,0.69
2023-03-12T00:18:40.545Z,0.72
2023-03-12T00:19:40.583Z,0.75
2023-03-12T00:20:40.515Z,0.73
2023-03-12T00:21:40.535Z,0.72
2023-03-12T00:22:40.506Z,0.66
2023-03-12T00:23:40.528Z,0.57
2023-03-12T00:24:40.509Z,0.42
2023-03-12T00:25:40.499Z,0.38
2023-03-12T00:26:40.462Z,0.38
2023-03-12T00:27:40.455Z,0.39
2023-03-12T00:28:40.447Z,0.41
2023-03-12T00:29:40.460Z,0.42
2023-03-12T00:30:40.389Z,0.39
2023-03-12T00:31:40.458Z,0.38
2023-03-12T00:32:40.442Z,0.35
2023-03-12T00:33:40.374Z,0.36
2023-03-12T00:34:40.387Z,0.35
2023-03-12T00:35:40.430Z,0.24
2023-03-12T00:36:40.303Z,0.13
2023-03-12T00:37:40.334Z,0.07
2023-03-12T00:38:40.288Z,0.08
2023-03-12T00:39:40.315Z,0.13
2023-03-12T00:40:40.252Z,0.15
2023-03-12T00:41:40.268Z,0.15
2023-03-12T00:42:40.261Z,0.15
2023-03-12T00:43:40.278Z,0.14
2023-03-12T00:44:40.219Z,0.13
2023-03-12T00:45:40.221Z,0.14
2023-03-12T00:46:40.212Z,0.15
2023-03-12T00:47:40.205Z,0.18
2023-03-12T00:48:40.164Z,0.20
2023-03-12T00:49:40.169Z,0.21
2023-03-12T00:50:40.132Z,0.21
2023-03-12T00:51:40.132Z,0.20
2023-03-12T00:52:40.105Z,0.24
2023-03-12T00:53:40.120Z,0.28
2023-03-12T00:54:40.087Z,0.29
2023-03-12T00:55:40.108Z,0.31
2023-03-12T00:56:40.067Z,0.31
2023-03-12T00:57:40.067Z,0.31
2023-03-12T00:58:40.033Z,0.32
2023-03-12T00:59:40.026Z,0.36
2023-03-12T01:00:40.041Z,0.38
2023-03-12T01:01:40.013Z,0.36
2023-03-12T01:02:40.034Z,0.38
2023-03-12T01:03:40.002Z,0.38
2023-03-12T01:04:40.012Z,0.39
2023-03-12T01:05:39.999Z,0.42
2023-03-12T01:06:39.920Z,0.46
2023-03-12T01:07:39.932Z,0.46
2023-03-12T01:08:39.896Z,0.47
2023-03-12T01:09:39.925Z,0.50
2023-03-12T01:10:39.853Z,0.55
2023-03-12T01:11:39.899Z,0.58
2023-03-12T01:12:39.835Z,0.62
2023-03-12T01:13:39.887Z,0.66
2023-03-12T01:14:39.848Z,0.70
2023-03-12T01:15:39.817Z,0.75
2023-03-12T01:16:39.849Z,0.76
2023-03-12T01:17:39.801Z,0.76
2023-03-12T01:18:39.811Z,0.70
2023-03-12T01:19:39.779Z,0.69
2023-03-12T01:20:39.738Z,0.70
2023-03-12T01:21:39.751Z,0.69
2023-03-12T01:22:39.715Z,0.69
2023-03-12T01:23:39.740Z,0.66
2023-03-12T01:24:39.722Z,0.61
2023-03-12T01:25:39.714Z,0.57
2023-03-12T01:26:39.668Z,0.50
2023-03-12T01:27:39.663Z,0.51
2023-03-12T01:28:39.659Z,0.49
2023-03-12T01:29:39.665Z,0.44
2023-03-12T01:30:39.601Z,0.39
2023-03-12T01:31:39.639Z,0.36
2023-03-12T01:32:39.563Z,0.33
2023-03-12T01:33:39.627Z,0.32
2023-03-12T01:34:39.573Z,0.32
2023-03-12T01:35:39.799Z,0.33
2023-03-12T01:36:39.539Z,0.35
2023-03-12T01:37:39.606Z,0.33
2023-03-12T01:38:39.511Z,0.32
2023-03-12T01:39:39.530Z,0.32
2023-03-12T01:40:39.506Z,0.29
2023-03-12T01:41:39.473Z,0.29
2023-03-12T01:42:39.442Z,0.28
2023-03-12T01:43:39.463Z,0.28
2023-03-12T01:44:39.454Z,0.28
2023-03-12T01:45:39.469Z,0.28
2023-03-12T01:46:39.422Z,0.28
2023-03-12T01:47:39.419Z,0.28
2023-03-12T01:48:39.361Z,0.31
2023-03-12T01:49:39.416Z,0.31
2023-03-12T01:50:39.347Z,0.26
2023-03-12T01:51:39.366Z,0.23
2023-03-12T01:52:39.313Z,0.21
2023-03-12T01:53:39.355Z,0.21
2023-03-12T01:54:39.309Z,0.18
2023-03-12T01:55:39.316Z,0.15
2023-03-12T01:56:39.281Z,0.11
2023-03-12T01:57:39.263Z,0.04
2023-03-12T01:58:39.227Z,-0.05
2023-03-12T01:59:39.282Z,-0.10
2023-03-12T02:00:39.292Z,-0.14
2023-03-12T02:01:39.229Z,-0.10
2023-03-12T02:02:39.198Z,-0.05
2023-03-12T02:03:39.245Z,0.04
2023-03-12T02:04:39.172Z,0.10
2023-03-12T02:05:39.225Z,0.14
2023-03-12T02:06:39.123Z,0.21
2023-03-12T02:07:39.150Z,0.24
2023-03-12T02:08:39.098Z,0.23
2023-03-12T02:09:39.104Z,0.23
2023-03-12T02:10:39.075Z,0.20
2023-03-12T02:11:39.106Z,0.18
2023-03-12T02:12:39.044Z,0.14
2023-03-12T02:13:39.053Z,0.11
2023-03-12T02:14:39.018Z,0.10
2023-03-12T02:15:39.083Z,0.07
2023-03-12T02:16:39.024Z,0.03
2023-03-12T02:17:39.004Z,0.03
2023-03-12T02:18:38.983Z,0.02
2023-03-12T02:19:38.991Z,0.03
2023-03-12T02:20:38.942Z,0.08
2023-03-12T02:21:38.956Z,0.14
2023-03-12T02:22:38.943Z,0.14
2023-03-12T02:23:38.960Z,0.13
2023-03-12T02:24:38.892Z,0.14
2023-03-12T02:25:38.902Z,0.15
2023-03-12T02:26:38.894Z,0.18
2023-03-12T02:27:38.887Z,0.21
2023-03-12T02:28:38.832Z,0.24
2023-03-12T02:29:38.838Z,0.31
2023-03-12T02:30:38.801Z,0.33
2023-03-12T02:31:38.878Z,0.36
2023-03-12T02:32:38.879Z,0.41
2023-03-12T02:33:38.798Z,0.42
2023-03-12T02:34:38.746Z,0.44
2023-03-12T02:35:38.825Z,0.41
2023-03-12T02:36:38.764Z,0.38
2023-03-12T02:37:38.770Z,0.39
2023-03-12T02:38:38.721Z,0.39
2023-03-12T02:39:38.705Z,0.44
2023-03-12T02:40:38.678Z,0.47
2023-03-12T02:41:38.698Z,0.49
2023-03-12T02:42:38.691Z,0.51
2023-03-12T02:43:38.676Z,0.47
2023-03-12T02:44:38.625Z,0.41
2023-03-12T02:45:38.649Z,0.31
2023-03-12T02:46:38.604Z,0.20
2023-03-12T02:47:38.629Z,0.07
2023-03-12T02:48:38.638Z,-0.05
2023-03-12T02:49:38.592Z,-0.16
2023-03-12T02:50:38.552Z,-0.25
2023-03-12T02:51:38.553Z,-0.22
2023-03-12T02:52:38.535Z,-0.19
2023-03-12T02:53:38.568Z,-0.15
2023-03-12T02:54:38.495Z,-0.14
2023-03-12T02:55:38.492Z,-0.08
2023-03-12T02:56:38.488Z,-0.05
2023-03-12T02:57:38.502Z,0.00
2023-03-12T02:58:38.482Z,0.03
2023-03-12T02:59:38.492Z,0.03
2023-03-12T03:00:38.426Z,0.07
2023-03-12T03:01:38.525Z,0.10
2023-03-12T03:02:38.398Z,0.15
2023-03-12T03:03:38.423Z,0.18
2023-03-12T03:04:38.400Z,0.21
2023-03-12T03:05:38.372Z,0.26
2023-03-12T03:06:38.359Z,0.29
2023-03-12T03:07:38.344Z,0.36
2023-03-12T03:08:38.335Z,0.44
2023-03-12T03:09:38.318Z,0.49
2023-03-12T03:10:38.326Z,0.51
2023-03-12T03:11:38.278Z,0.55
2023-03-12T03:12:38.296Z,0.60
2023-03-12T03:13:38.256Z,0.60
2023-03-12T03:14:38.294Z,0.58
2023-03-12T03:15:38.262Z,0.58
2023-03-12T03:16:38.233Z,0.65
2023-03-12T03:17:38.217Z,0.66
2023-03-12T03:18:38.202Z,0.65
2023-03-12T03:19:38.189Z,0.68
2023-03-12T03:20:38.170Z,0.69
2023-03-12T03:21:38.140Z,0.69
2023-03-12T03:22:38.151Z,0.73
2023-03-12T03:23:38.136Z,0.69
2023-03-12T03:24:38.154Z,0.69
2023-03-12T03:25:38.090Z,0.69
2023-03-12T03:26:38.150Z,0.66
2023-03-12T03:27:38.066Z,0.66
2023-03-12T03:28:38.108Z,0.68
2023-03-12T03:29:38.059Z,0.70
2023-03-12T03:30:38.098Z,0.75
2023-03-12T03:31:38.040Z,0.79
2023-03-12T03:32:38.218Z,0.80
2023-03-12T03:33:37.988Z,0.84
2023-03-12T03:34:38.005Z,0.83
2023-03-12T03:35:38.012Z,0.76
2023-03-12T03:36:37.997Z,0.76
2023-03-12T03:37:37.926Z,0.76
2023-03-12T03:38:37.938Z,0.80
2023-03-12T03:39:37.926Z,0.84
2023-03-12T03:40:37.923Z,0.87
2023-03-12T03:41:37.877Z,0.88
2023-03-12T03:42:37.918Z,0.90
2023-03-12T03:43:37.853Z,0.91
2023-03-12T03:44:37.855Z,0.91
2023-03-12T03:45:37.833Z,0.93
2023-03-12T03:46:38.174Z,0.94
2023-03-12T03:47:37.832Z,0.94
2023-03-12T03:48:37.812Z,0.97
2023-03-12T03:49:37.779Z,0.94
2023-03-12T03:50:37.807Z,0.93
2023-03-12T03:51:37.743Z,0.94
2023-03-12T03:52:37.778Z,0.96
2023-03-12T03:53:37.740Z,0.98
2023-03-12T03:54:37.746Z,1.00
2023-03-12T03:55:37.704Z,0.98
2023-03-12T03:56:37.715Z,0.97
2023-03-12T03:57:37.678Z,0.93
2023-03-12T03:58:37.707Z,0.84
2023-03-12T03:59:37.664Z,0.78
2023-03-12T04:00:37.673Z,0.69
2023-03-12T04:01:37.619Z,0.66
2023-03-12T04:02:37.657Z,0.61
2023-03-12T04:03:37.633Z,0.57
2023-03-12T04:04:37.620Z,0.55
2023-03-12T04:05:37.621Z,0.50
2023-03-12T04:06:37.584Z,0.50
2023-03-12T04:07:37.547Z,0.49
2023-03-12T04:08:37.545Z,0.46
2023-03-12T04:09:37.519Z,0.44
2023-03-12T04:10:37.529Z,0.44
2023-03-12T04:11:37.497Z,0.47
2023-03-12T04:12:37.542Z,0.50
2023-03-12T04:13:37.456Z,0.53
2023-03-12T04:14:37.525Z,0.50
2023-03-12T04:15:37.449Z,0.50
2023-03-12T04:16:37.487Z,0.57
2023-03-12T04:17:37.408Z,0.61
2023-03-12T04:18:37.435Z,0.65
2023-03-12T04:19:37.390Z,0.66
2023-03-12T04:20:37.394Z,0.65
2023-03-12T04:21:37.373Z,0.62
2023-03-12T04:22:37.359Z,0.60
2023-03-12T04:23:37.344Z,0.58
2023-03-12T04:24:37.335Z,0.60
2023-03-12T04:25:37.321Z,0.60
2023-03-12T04:26:37.345Z,0.61
2023-03-12T04:27:37.290Z,0.65
2023-03-12T04:28:37.297Z,0.66
2023-03-12T04:29:37.250Z,0.65
2023-03-12T04:30:37.271Z,0.60
2023-03-12T04:31:37.319Z,0.58
2023-03-12T04:32:37.227Z,0.58
2023-03-12T04:33:37.189Z,0.60
2023-03-12T04:34:37.245Z,0.62
2023-03-12T04:35:37.210Z,0.66
2023-03-12T04:36:37.179Z,0.68
2023-03-12T04:37:37.161Z,0.72
2023-03-12T04:38:37.175Z,0.72
2023-03-12T04:39:37.108Z,0.72
2023-03-12T04:40:37.136Z,0.73
2023-03-12T04:41:37.095Z,0.76
2023-03-12T04:42:37.106Z,0.83
2023-03-12T04:43:37.083Z,0.87
2023-03-12T04:44:37.077Z,0.88
2023-03-12T04:45:37.052Z,0.88
2023-03-12T04:46:37.081Z,0.86
2023-03-12T04:47:37.080Z,0.88
2023-03-12T04:48:37.027Z,0.91
2023-03-12T04:49:36.984Z,0.94
2023-03-12T04:50:36.994Z,0.96
2023-03-12T04:51:36.989Z,0.98
2023-03-12T04:52:36.999Z,1.00
2023-03-12T04:53:36.985Z,1.04
2023-03-12T04:54:36.976Z,1.05
2023-03-12T04:55:36.908Z,1.05
2023-03-12T04:56:36.953Z,1.08
2023-03-12T04:57:36.892Z,1.09
2023-03-12T04:58:36.925Z,1.14
2023-03-12T04:59:36.875Z,1.15
2023-03-12T05:00:36.895Z,1.16
2023-03-12T05:01:36.840Z,1.18
2023-03-12T05:02:36.871Z,1.22
2023-03-12T05:03:36.861Z,1.23
2023-03-12T05:04:36.849Z,1.24
2023-03-12T05:05:36.791Z,1.26
2023-03-12T05:06:36.803Z,1.27
2023-03-12T05:07:36.756Z,1.29
2023-03-12T05:08:36.771Z,1.30
2023-03-12T05:09:36.750Z,1.29
2023-03-12T05:10:36.752Z,1.32
2023-03-12T05:11:39.215Z,1.32
2023-03-12T05:12:36.735Z,1.33
2023-03-12T05:13:36.685Z,1.33
2023-03-12T05:14:36.712Z,1.33
2023-03-12T05:15:36.653Z,1.30
2023-03-12T05:16:36.718Z,1.32
2023-03-12T05:17:36.632Z,1.30
2023-03-12T05:18:36.662Z,1.29
2023-03-12T05:19:36.620Z,1.29
2023-03-12T05:20:36.623Z,1.29
2023-03-12T05:21:36.570Z,1.29
2023-03-12T05:22:36.606Z,1.27
2023-03-12T05:23:36.560Z,1.26
2023-03-12T05:24:36.562Z,1.22
2023-03-12T05:25:37.498Z,1.20
2023-03-12T05:26:36.526Z,1.22
2023-03-12T05:27:36.549Z,1.24
2023-03-12T05:28:36.500Z,1.27
2023-03-12T05:29:36.480Z,1.30
2023-03-12T05:30:36.483Z,1.32
2023-03-12T05:31:36.542Z,1.30
2023-03-12T05:32:36.562Z,1.27
2023-03-12T05:33:36.446Z,1.30
2023-03-12T05:34:36.429Z,1.27
2023-03-12T05:35:36.405Z,1.24
2023-03-12T05:36:36.441Z,1.20
2023-03-12T05:37:36.362Z,1.16
2023-03-12T05:38:36.377Z,1.15
2023-03-12T05:39:36.338Z,1.12
2023-03-12T05:40:36.370Z,1.11
2023-03-12T05:41:36.298Z,1.12
2023-03-12T05:42:36.336Z,1.12
2023-03-12T05:43:36.292Z,1.11
2023-03-12T05:44:36.338Z,1.08
2023-03-12T05:45:36.285Z,1.09
2023-03-12T05:46:36.270Z,1.09
2023-03-12T05:47:36.242Z,1.11
2023-03-12T05:48:36.239Z,1.11
2023-03-12T05:49:36.227Z,1.15
2023-03-12T05:50:36.225Z,1.16
2023-03-12T05:51:36.177Z,1.18
2023-03-12T05:52:36.208Z,1.20
2023-03-12T05:53:36.164Z,1.18
2023-03-12T05:54:36.180Z,1.18
2023-03-12T05:55:36.145Z,1.16
2023-03-12T05:56:36.142Z,1.18
2023-03-12T05:57:36.092Z,1.16
2023-03-12T05:58:36.125Z,1.16
2023-03-12T05:59:36.199Z,1.15
2023-03-12T06:00:36.109Z,1.12
2023-03-12T06:01:36.055Z,1.12
2023-03-12T06:02:36.132Z,1.12
2023-03-12T06:03:36.164Z,1.14
2023-03-12T06:04:36.032Z,1.15
2023-03-12T06:05:36.006Z,1.16
2023-03-12T06:06:36.069Z,1.15
2023-03-12T06:07:35.963Z,1.15
2023-03-12T06:08:35.988Z,1.16
2023-03-12T06:09:35.941Z,1.20
2023-03-12T06:10:35.986Z,1.20
2023-03-12T06:11:35.934Z,1.23
2023-03-12T06:12:35.927Z,1.23
2023-03-12T06:13:35.870Z,1.27
2023-03-12T06:14:35.894Z,1.29
2023-03-12T06:15:35.856Z,1.30
2023-03-12T06:16:35.953Z,1.30
2023-03-12T06:17:35.830Z,1.33
2023-03-12T06:18:35.858Z,1.34
2023-03-12T06:19:35.851Z,1.36
2023-03-12T06:20:35.836Z,1.42
2023-03-12T06:21:35.799Z,1.47
2023-03-12T06:22:35.803Z,1.51
2023-03-12T06:23:35.749Z,1.50
2023-03-12T06:24:35.762Z,1.50
2023-03-12T06:25:35.731Z,1.48
2023-03-12T06:26:35.777Z,1.48
2023-03-12T06:27:35.687Z,1.48
2023-03-12T06:28:35.764Z,1.51
2023-03-12T06:29:35.724Z,1.48
2023-03-12T06:30:35.694Z,1.47
2023-03-12T06:31:38.613Z,1.45
2023-03-12T06:32:35.750Z,1.45
2023-03-12T06:33:35.642Z,1.45
2023-03-12T06:34:35.644Z,1.47
2023-03-12T06:35:35.630Z,1.45
2023-03-12T06:36:35.609Z,1.48
2023-03-12T06:37:35.580Z,1.52
2023-03-12T06:38:35.644Z,1.58
2023-03-12T06:39:35.545Z,1.58
2023-03-12T06:40:35.574Z,1.58
2023-03-12T06:41:35.517Z,1.58
2023-03-12T06:42:35.525Z,1.59
2023-03-12T06:43:35.578Z,1.62
2023-03-12T06:44:35.547Z,1.65
2023-03-12T06:45:35.487Z,1.68
2023-03-12T06:46:35.518Z,1.68
2023-03-12T06:47:35.450Z,1.68
2023-03-12T06:48:35.513Z,1.69
2023-03-12T06:49:35.428Z,1.70
2023-03-12T06:50:35.453Z,1.69
2023-03-12T06:51:35.383Z,1.70
2023-03-12T06:52:35.398Z,1.72
2023-03-12T06:53:35.377Z,1.76
2023-03-12T06:54:35.412Z,1.77
2023-03-12T06:55:35.324Z,1.76
2023-03-12T06:56:35.339Z,1.80
2023-03-12T06:57:35.358Z,1.79
2023-03-12T06:58:35.342Z,1.76
2023-03-12T06:59:35.309Z,1.76
2023-03-12T07:00:35.298Z,1.79
2023-03-12T07:01:35.254Z,1.79
2023-03-12T07:02:35.316Z,1.77
2023-03-12T07:03:35.232Z,1.79
2023-03-12T07:04:35.275Z,1.76
2023-03-12T07:05:35.216Z,1.77
2023-03-12T07:06:35.222Z,1.72
2023-03-12T07:07:35.185Z,1.73
2023-03-12T07:08:35.201Z,1.73
2023-03-12T07:09:35.153Z,1.76
2023-03-12T07:10:35.209Z,1.80
2023-03-12T07:11:35.295Z,1.83
2023-03-12T07:12:35.138Z,1.81
2023-03-12T07:13:35.110Z,1.80
2023-03-12T07:14:35.114Z,1.79
2023-03-12T07:15:35.065Z,1.72
2023-03-12T07:16:35.273Z,1.72
2023-03-12T07:17:35.048Z,1.70
2023-03-12T07:18:35.056Z,1.70
2023-03-12T07:19:35.030Z,1.72
2023-03-12T07:20:35.037Z,1.70
2023-03-12T07:21:35.008Z,1.73
2023-03-12T07:22:35.024Z,1.77
2023-03-12T07:23:35.038Z,1.81
2023-03-12T07:24:34.979Z,1.80
2023-03-12T07:25:34.993Z,1.81
2023-03-12T07:26:34.976Z,1.81
2023-03-12T07:27:34.959Z,1.80
2023-03-12T07:28:34.909Z,1.83
2023-03-12T07:29:34.914Z,1.84
2023-03-12T07:30:34.877Z,1.84
2023-03-12T07:31:34.980Z,1.81
2023-03-12T07:32:34.884Z,1.81
2023-03-12T07:33:35.046Z,1.79
2023-03-12T07:34:34.986Z,1.79
2023-03-12T07:35:34.928Z,1.81
2023-03-12T07:36:34.992Z,1.81
2023-03-12T07:37:34.841Z,1.81
2023-03-12T07:38:34.793Z,1.79
2023-03-12T07:39:34.814Z,1.83
2023-03-12T07:40:34.754Z,1.84
2023-03-12T07:41:34.775Z,1.87
2023-03-12T07:42:34.801Z,1.90
2023-03-12T07:43:34.829Z,1.95
2023-03-12T07:44:34.697Z,1.98
2023-03-12T07:45:34.738Z,1.98
2023-03-12T07:46:34.715Z,1.95
2023-03-12T07:47:34.822Z,1.98
2023-03-12T07:48:34.680Z,1.99
2023-03-12T07:49:34.644Z,1.93
2023-03-12T07:50:34.607Z,1.95
2023-03-12T07:51:34.626Z,1.99
2023-03-12T07:52:34.650Z,2.00
2023-03-12T07:53:34.594Z,2.02
2023-03-12T07:54:34.606Z,2.02
2023-03-12T07:55:34.614Z,2.03
2023-03-12T07:56:36.072Z,2.06
2023-03-12T07:57:34.611Z,2.06
2023-03-12T07:58:34.630Z,2.00
2023-03-12T07:59:34.558Z,2.00
2023-03-12T08:00:34.552Z,2.02
2023-03-12T08:01:34.517Z,2.05
2023-03-12T08:02:34.573Z,2.09
2023-03-12T08:03:34.714Z,2.12
2023-03-12T08:04:34.527Z,2.16
2023-03-12T08:05:34.490Z,2.17
2023-03-12T08:06:34.410Z,2.18
2023-03-12T08:07:34.519Z,2.21
2023-03-12T08:08:34.433Z,2.23
2023-03-12T08:09:34.409Z,2.23
2023-03-12T08:10:34.375Z,2.23
2023-03-12T08:11:34.410Z,2.24
2023-03-12T08:12:34.358Z,2.24
2023-03-12T08:13:34.375Z,2.18
2023-03-12T08:14:34.371Z,2.16
2023-03-12T08:15:34.338Z,2.17
2023-03-12T08:16:34.301Z,2.16
2023-03-12T08:17:34.327Z,2.14
2023-03-12T08:18:34.266Z,2.10
2023-03-12T08:19:34.258Z,2.06
2023-03-12T08:20:34.251Z,2.03
2023-03-12T08:21:34.249Z,2.02
2023-03-12T08:22:34.207Z,2.02
2023-03-12T08:23:34.203Z,2.03
2023-03-12T08:24:34.190Z,2.09
2023-03-12T08:25:34.220Z,2.16
2023-03-12T08:26:34.152Z,2.17
2023-03-12T08:27:34.148Z,2.16
2023-03-12T08:28:34.134Z,2.18
2023-03-12T08:29:34.125Z,2.12
2023-03-12T08:30:34.106Z,2.06
2023-03-12T08:31:34.146Z,2.07
2023-03-12T08:32:34.358Z,2.09
2023-03-12T08:33:34.096Z,2.14
2023-03-12T08:34:34.062Z,2.16
2023-03-12T08:35:34.083Z,2.12
2023-03-12T08:36:34.032Z,2.14
2023-03-12T08:37:34.042Z,2.16
2023-03-12T08:38:33.990Z,2.18
2023-03-12T08:39:34.001Z,2.20
2023-03-12T08:40:33.960Z,2.21
2023-03-12T08:41:33.965Z,2.21
2023-03-12T08:42:33.967Z,2.23
2023-03-12T08:43:33.934Z,2.21
2023-03-12T08:44:33.932Z,2.25
2023-03-12T08:45:33.991Z,2.27
2023-03-12T08:46:33.882Z,2.28
2023-03-12T08:47:33.897Z,2.34
2023-03-12T08:48:33.886Z,2.38
2023-03-12T08:49:33.889Z,2.38
2023-03-12T08:50:33.824Z,2.38
2023-03-12T08:51:33.835Z,2.38
2023-03-12T08:52:33.791Z,2.36
2023-03-12T08:53:33.843Z,2.41
2023-03-12T08:54:33.790Z,2.41
2023-03-12T08:55:33.790Z,2.41
2023-03-12T08:56:33.786Z,2.38
2023-03-12T08:57:33.767Z,2.39
2023-03-12T08:58:33.728Z,2.39
2023-03-12T08:59:33.767Z,2.41
2023-03-12T09:00:33.704Z,2.43
2023-03-12T09:01:33.731Z,2.43
2023-03-12T09:02:33.680Z,2.45
2023-03-12T09:03:33.714Z,2.46
2023-03-12T09:04:33.726Z,2.49
2023-03-12T09:05:33.692Z,2.54
2023-03-12T09:06:33.635Z,2.57
2023-03-12T09:07:33.672Z,2.56
2023-03-12T09:08:33.677Z,2.54
2023-03-12T09:09:33.623Z,2.53
2023-03-12T09:10:33.623Z,2.57
2023-03-12T09:11:33.605Z,2.60
2023-03-12T09:12:33.574Z,2.63
2023-03-12T09:13:55.517Z,2.61
2023-03-12T09:15:02.018Z,2.61
2023-03-12T09:15:33.547Z,2.63
2023-03-12T09:16:33.536Z,2.67
2023-03-12T09:17:33.499Z,2.66
2023-03-12T09:18:33.474Z,2.64
2023-03-12T09:19:33.505Z,2.64
2023-03-12T09:20:33.437Z,2.67
2023-03-12T09:21:33.469Z,2.71
2023-03-12T09:22:33.414Z,2.72
2023-03-12T09:23:33.436Z,2.75
2023-03-12T09:24:33.407Z,2.79
2023-03-12T09:25:33.402Z,2.84
2023-03-12T09:26:33.365Z,2.87
2023-03-12T09:27:33.366Z,2.93
2023-03-12T09:28:33.364Z,2.96
2023-03-12T09:29:33.345Z,2.99
2023-03-12T09:30:33.375Z,3.02
2023-03-12T09:31:33.318Z,3.05
2023-03-12T09:32:33.342Z,3.06
2023-03-12T09:33:33.309Z,3.11
2023-03-12T09:34:33.244Z,3.14
2023-03-12T09:35:33.319Z,3.14
2023-03-12T09:36:33.229Z,3.13
2023-03-12T09:37:33.260Z,3.15
2023-03-12T09:38:33.218Z,3.20
2023-03-12T09:39:33.203Z,3.20
2023-03-12T09:40:33.173Z,3.23
2023-03-12T09:41:33.203Z,3.26
2023-03-12T09:42:33.170Z,3.28
2023-03-12T09:43:33.158Z,3.33
2023-03-12T09:44:33.115Z,3.36
2023-03-12T09:45:33.157Z,3.42
2023-03-12T09:46:33.157Z,3.47
2023-03-12T09:47:33.124Z,3.48
2023-03-12T09:48:33.088Z,3.50
2023-03-12T09:49:33.097Z,3.51
2023-03-12T09:50:33.060Z,3.55
2023-03-12T09:51:33.079Z,3.57
2023-03-12T09:52:33.018Z,3.61
2023-03-12T09:53:33.033Z,3.65
2023-03-12T09:54:33.001Z,3.69
2023-03-12T09:55:33.006Z,3.70
2023-03-12T09:56:32.978Z,3.75
2023-03-12T09:57:32.977Z,3.78
2023-03-12T09:58:32.954Z,3.83
2023-03-12T09:59:32.945Z,3.87
2023-03-12T10:00:32.950Z,3.91
2023-03-12T10:01:32.951Z,3.98
2023-03-12T10:02:32.925Z,4.06
2023-03-12T10:03:32.928Z,4.08
2023-03-12T10:04:34.670Z,4.12
2023-03-12T10:05:32.878Z,4.15
2023-03-12T10:06:32.831Z,4.18
2023-03-12T10:07:32.861Z,4.22
2023-03-12T10:08:32.839Z,4.26
2023-03-12T10:09:32.817Z,4.27
2023-03-12T10:10:32.804Z,4.33
2023-03-12T10:11:32.826Z,4.37
2023-03-12T10:12:32.799Z,4.42
2023-03-12T10:13:32.803Z,4.48
2023-03-12T10:14:32.737Z,4.51
2023-03-12T10:15:32.808Z,4.52
2023-03-12T10:16:32.720Z,4.58
2023-03-12T10:17:32.748Z,4.63
2023-03-12T10:18:32.908Z,4.69
2023-03-12T10:19:32.677Z,4.75
2023-03-12T10:20:32.649Z,4.77
2023-03-12T10:21:32.654Z,4.82
2023-03-12T10:22:32.632Z,4.88
2023-03-12T10:23:32.672Z,4.94
2023-03-12T10:24:32.632Z,4.97
2023-03-12T10:25:32.616Z,5.06
2023-03-12T10:26:32.575Z,5.22
2023-03-12T10:27:32.607Z,5.35
2023-03-12T10:28:32.574Z,5.43
2023-03-12T10:29:32.575Z,5.56
2023-03-12T10:30:32.509Z,5.67
2023-03-12T10:31:32.565Z,5.78
2023-03-12T10:32:32.554Z,5.89
2023-03-12T10:33:32.510Z,5.96
2023-03-12T10:34:32.481Z,6.01
2023-03-12T10:35:32.521Z,6.11
2023-03-12T10:36:32.443Z,6.18
2023-03-12T10:37:32.473Z,6.22
2023-03-12T10:38:32.430Z,6.30
2023-03-12T10:39:32.446Z,6.31
2023-03-12T10:40:32.389Z,6.33
2023-03-12T10:41:34.741Z,6.34
2023-03-12T10:42:32.356Z,6.36
2023-03-12T10:43:32.398Z,6.33
2023-03-12T10:44:32.332Z,6.33
2023-03-12T10:45:32.433Z,6.34
2023-03-12T10:46:34.459Z,6.33
2023-03-12T10:47:32.328Z,6.34
2023-03-12T10:48:32.306Z,6.37
2023-03-12T10:49:32.330Z,6.44
2023-03-12T10:50:32.280Z,6.52
2023-03-12T10:51:32.275Z,6.62
2023-03-12T10:52:32.236Z,6.67
2023-03-12T10:53:32.229Z,6.76
2023-03-12T10:54:32.231Z,6.84
2023-03-12T10:55:32.205Z,6.91
2023-03-12T10:56:32.188Z,6.98
2023-03-12T10:57:32.185Z,7.03
2023-03-12T10:58:32.164Z,7.09
2023-03-12T10:59:32.173Z,7.12
2023-03-12T11:00:32.159Z,7.15
2023-03-12T11:01:32.203Z,7.21
2023-03-12T11:02:32.117Z,7.27
2023-03-12T11:03:32.126Z,7.30
2023-03-12T11:04:32.081Z,7.34
2023-03-12T11:05:32.124Z,7.39
2023-03-12T11:06:32.118Z,7.46
2023-03-12T11:07:32.043Z,7.57
2023-03-12T11:08:32.060Z,7.64
2023-03-12T11:09:32.011Z,7.77
2023-03-12T11:10:32.048Z,7.89
2023-03-12T11:11:32.053Z,8.00
2023-03-12T11:12:32.009Z,8.05
2023-03-12T11:13:31.952Z,8.18
2023-03-12T11:14:32.014Z,8.26
2023-03-12T11:15:31.957Z,8.34
2023-03-12T11:16:32.381Z,8.41
2023-03-12T11:17:31.901Z,8.43
2023-03-12T11:18:31.965Z,8.45
2023-03-12T11:19:31.901Z,8.47
2023-03-12T11:20:31.897Z,8.48
2023-03-12T11:21:31.868Z,8.50
2023-03-12T11:22:31.858Z,8.56
2023-03-12T11:23:31.898Z,8.59
2023-03-12T11:24:31.851Z,8.65
2023-03-12T11:25:31.827Z,8.70
2023-03-12T11:26:31.804Z,8.76
2023-03-12T11:27:31.800Z,8.84
2023-03-12T11:28:31.848Z,8.91
2023-03-12T11:29:31.903Z,8.95
2023-03-12T11:30:31.836Z,9.13
2023-03-12T11:31:31.764Z,9.23
2023-03-12T11:32:31.793Z,9.31
2023-03-12T11:33:31.687Z,9.39
2023-03-12T11:34:31.778Z,9.46
2023-03-12T11:35:31.856Z,9.54
2023-03-12T11:36:31.677Z,9.58
2023-03-12T11:37:31.674Z,9.64
2023-03-12T11:38:31.624Z,9.74
2023-03-12T11:39:31.679Z,9.84
2023-03-12T11:40:31.617Z,9.96
2023-03-12T11:41:31.625Z,10.02
2023-03-12T11:42:31.613Z,10.09
2023-03-12T11:43:42.721Z,10.17
2023-03-12T11:44:31.536Z,10.23
2023-03-12T11:45:31.591Z,10.29
2023-03-12T11:46:31.538Z,10.36
2023-03-12T11:47:31.544Z,10.40
2023-03-12T11:48:31.562Z,10.52
2023-03-12T11:49:31.504Z,10.66
2023-03-12T11:50:31.488Z,10.76
2023-03-12T11:51:31.500Z,10.89
2023-03-12T11:52:31.457Z,10.97
2023-03-12T11:53:31.456Z,11.00
2023-03-12T11:54:31.408Z,11.04
2023-03-12T11:55:31.425Z,11.10
2023-03-12T11:56:31.389Z,11.10
2023-03-12T11:57:31.417Z,11.17
2023-03-12T11:58:31.371Z,11.25
2023-03-12T11:59:31.368Z,11.25
2023-03-12T12:00:31.339Z,11.25
2023-03-12T12:01:31.376Z,11.21
2023-03-12T12:02:31.347Z,11.22
2023-03-12T12:03:31.378Z,11.22
2023-03-12T12:04:31.272Z,11.27
2023-03-12T12:05:31.291Z,11.29
2023-03-12T12:06:31.245Z,11.36
2023-03-12T12:07:31.287Z,11.36
2023-03-12T12:08:31.249Z,11.39
2023-03-12T12:09:31.241Z,11.36
2023-03-12T12:10:31.205Z,11.29
2023-03-12T12:11:31.207Z,11.22
2023-03-12T12:12:31.185Z,11.19
2023-03-12T12:13:31.198Z,11.17
2023-03-12T12:14:31.136Z,11.15
2023-03-12T12:15:31.158Z,11.14
2023-03-12T12:16:31.137Z,11.17
2023-03-12T12:17:31.164Z,11.24
2023-03-12T12:18:31.113Z,11.29
2023-03-12T12:19:31.138Z,11.33
2023-03-12T12:20:31.060Z,11.40
2023-03-12T12:21:31.084Z,11.42
2023-03-12T12:22:31.043Z,11.40
2023-03-12T12:23:31.051Z,11.46
2023-03-12T12:24:31.003Z,11.44
2023-03-12T12:25:31.042Z,11.43
2023-03-12T12:26:30.991Z,11.44
2023-03-12T12:27:30.993Z,11.42
2023-03-12T12:28:30.972Z,11.40
2023-03-12T12:29:31.005Z,11.46
2023-03-12T12:30:30.918Z,11.46
2023-03-12T12:31:30.971Z,11.49
2023-03-12T12:32:30.920Z,11.55
2023-03-12T12:33:30.931Z,11.60
2023-03-12T12:34:30.889Z,11.67
2023-03-12T12:35:30.943Z,11.72
2023-03-12T12:36:30.846Z,11.73
2023-03-12T12:37:30.849Z,11.69
2023-03-12T12:38:30.818Z,11.65
2023-03-12T12:39:30.862Z,11.70
2023-03-12T12:40:30.793Z,11.72
2023-03-12T12:41:30.804Z,11.75
2023-03-12T12:42:30.773Z,11.75
2023-03-12T12:43:30.807Z,11.78
2023-03-12T12:44:30.809Z,11.75
2023-03-12T12:45:31.199Z,11.75
2023-03-12T12:46:30.851Z,11.72
2023-03-12T12:47:30.797Z,11.70
2023-03-12T12:48:30.694Z,11.65
2023-03-12T12:49:30.709Z,11.61
2023-03-12T12:50:30.670Z,11.60
2023-03-12T12:51:30.680Z,11.57
2023-03-12T12:52:30.623Z,11.57
2023-03-12T12:53:30.635Z,11.54
2023-03-12T12:54:30.626Z,11.52
2023-03-12T12:55:30.620Z,11.49
2023-03-12T12:56:30.585Z,11.46
2023-03-12T12:57:30.653Z,11.42
2023-03-12T12:58:30.550Z,11.42
2023-03-12T12:59:30.582Z,11.39
2023-03-12T13:00:30.552Z,11.36
2023-03-12T13:01:30.567Z,11.32
2023-03-12T13:02:30.487Z,11.33
2023-03-12T13:03:30.550Z,11.29
2023-03-12T13:04:30.509Z,11.33
2023-03-12T13:05:30.488Z,11.32
2023-03-12T13:06:30.496Z,11.35
2023-03-12T13:07:30.447Z,11.37
2023-03-12T13:08:30.414Z,11.40
2023-03-12T13:09:30.424Z,11.46
2023-03-12T13:10:30.406Z,11.51
2023-03-12T13:11:30.420Z,11.57
2023-03-12T13:12:30.381Z,11.61
2023-03-12T13:13:30.405Z,11.64
2023-03-12T13:14:30.340Z,11.65